Terminal Aerodrome Forecast
Issued by NWS

Home | Current Version | Previous Version | Text Only | Print | Product List | Glossary Off
Versions: 1 2 3 4 5 6 7 8 9 10 11

715
FTUS43 KFGF 261115 AAB
TAFBJI
TAF AMD
KBJI 261115Z 2611/2706 07008KT P6SM OVC035
     FM262200 09011KT P6SM SCT120
     FM270500 09007KT P6SM SCT250=

USA.gov is the U.S. government's official web portal to all federal, state and local government web resources and services.